Tasso Fragoso, Brazil
Current Conditions -  °F | °C
As of 7:00 PM on Sunday 23 Nov 2014 (Local Time) from SBIZ Reporting Station
Few Clouds Few Clouds  
Wind Chill: 86°   Ceiling: Unl
Heat Index: 99°   Visibility: 6mi
Dew Point: 79°   Wind: 6mph
Humidity: 79%   Direction: 250°WSW
Pressure: 29.8"   Gusts: NA
Location:  8.48°S, 45.74°W
Report Text: SBIZ 232200Z 25005KT 9999 FEW020 30/26 Q1009
Loading
Personal Weather Stations






























Interactive Weather Map New forecast layout! Learn more

10-Day Weather Forecast

Advertisements
Track Severe Weather on mobile